EWG4AD LSZH-EDDK
Flight info
| Callsign | EWG4AD |
|---|---|
| Flight time | 0h 47m |
| Altitude | 30000 |
| Route | DEGES2X DEGES Z1 SUDEN T844 ASKIK T840 GULKO GULKO1C |
| Aircraft | A320/M-SDE2E3FGIJ1RWXYZ/HB1 |
Departure
| Time | 2026-04-26 13:27 |
|---|---|
| Airport | Zürich Airport (LSZH) |
Arrival
| Time | 2026-04-26 14:14 |
|---|---|
| Airport | Cologne Bonn Airport (EDDK) |
| Time | Latitude | Longitude | Altitude | Speed | Heading |
|---|---|---|---|---|---|
| 2026-04-26 12:54 | 47.45434 | 8.55691 | 1407 ft | 0 kts | 186° |
| 2026-04-26 12:58 | 47.45432 | 8.55634 | 1412 ft | 0 kts | 186° |
| 2026-04-26 13:13 | 47.45433 | 8.55634 | 1407 ft | 2 kts | 186° |
| 2026-04-26 13:13 | 47.45457 | 8.55640 | 1414 ft | 4 kts | 190° |
| 2026-04-26 13:13 | 47.45482 | 8.55641 | 1409 ft | 2 kts | 162° |
| 2026-04-26 13:14 | 47.45504 | 8.55629 | 1414 ft | 4 kts | 144° |
| 2026-04-26 13:14 | 47.45519 | 8.55601 | 1408 ft | 3 kts | 99° |
| 2026-04-26 13:14 | 47.45519 | 8.55595 | 1408 ft | 0 kts | 96° |
| 2026-04-26 13:16 | 47.45519 | 8.55596 | 1408 ft | 1 kts | 96° |
| 2026-04-26 13:17 | 47.45504 | 8.55804 | 1414 ft | 14 kts | 96° |
| 2026-04-26 13:17 | 47.45493 | 8.55960 | 1410 ft | 16 kts | 96° |
| 2026-04-26 13:18 | 47.45510 | 8.56273 | 1410 ft | 15 kts | 51° |
| 2026-04-26 13:18 | 47.45572 | 8.56385 | 1413 ft | 14 kts | 51° |
| 2026-04-26 13:18 | 47.45582 | 8.56656 | 1418 ft | 14 kts | 96° |
| 2026-04-26 13:19 | 47.45572 | 8.56787 | 1421 ft | 10 kts | 96° |
| 2026-04-26 13:19 | 47.45569 | 8.56834 | 1420 ft | 2 kts | 96° |
| 2026-04-26 13:19 | 47.45568 | 8.56844 | 1420 ft | 0 kts | 96° |
| 2026-04-26 13:19 | 47.45568 | 8.56852 | 1420 ft | 2 kts | 96° |
| 2026-04-26 13:20 | 47.45565 | 8.56892 | 1420 ft | 5 kts | 96° |
| 2026-04-26 13:20 | 47.45562 | 8.56936 | 1420 ft | 0 kts | 96° |
| 2026-04-26 13:23 | 47.45562 | 8.56943 | 1420 ft | 3 kts | 96° |
| 2026-04-26 13:23 | 47.45577 | 8.57008 | 1422 ft | 8 kts | 41° |
| 2026-04-26 13:23 | 47.45623 | 8.57022 | 1425 ft | 8 kts | 6° |
| 2026-04-26 13:24 | 47.45665 | 8.57000 | 1425 ft | 7 kts | 278° |
| 2026-04-26 13:24 | 47.45667 | 8.56956 | 1424 ft | 0 kts | 276° |
| 2026-04-26 13:26 | 47.45667 | 8.56955 | 1424 ft | 1 kts | 276° |
| 2026-04-26 13:26 | 47.45679 | 8.56785 | 1420 ft | 52 kts | 276° |
| 2026-04-26 13:26 | 47.45745 | 8.55852 | 1409 ft | 126 kts | 276° |
| 2026-04-26 13:27 | 47.45859 | 8.54303 | 1517 ft | 170 kts | 277° |
| 2026-04-26 13:27 | 47.45984 | 8.52552 | 2242 ft | 172 kts | 278° |
| 2026-04-26 13:27 | 47.46107 | 8.50791 | 3090 ft | 172 kts | 279° |
| 2026-04-26 13:27 | 47.46227 | 8.49044 | 3867 ft | 170 kts | 276° |
| 2026-04-26 13:28 | 47.45977 | 8.47350 | 4558 ft | 173 kts | 237° |
| 2026-04-26 13:28 | 47.45268 | 8.45811 | 4951 ft | 191 kts | 242° |
| 2026-04-26 13:28 | 47.44599 | 8.43971 | 5303 ft | 215 kts | 242° |
| 2026-04-26 13:28 | 47.43868 | 8.41909 | 5709 ft | 236 kts | 242° |
| 2026-04-26 13:29 | 47.43114 | 8.39758 | 6595 ft | 236 kts | 242° |
| 2026-04-26 13:29 | 47.42549 | 8.38391 | 7168 ft | 235 kts | 228° |
| 2026-04-26 13:29 | 47.40654 | 8.36927 | 8273 ft | 237 kts | 182° |
| 2026-04-26 13:29 | 47.39060 | 8.37458 | 9071 ft | 240 kts | 148° |
| 2026-04-26 13:30 | 47.37944 | 8.39239 | 9861 ft | 245 kts | 114° |
| 2026-04-26 13:30 | 47.37722 | 8.41721 | 10582 ft | 251 kts | 78° |
| 2026-04-26 13:30 | 47.38538 | 8.43983 | 11309 ft | 254 kts | 45° |
| 2026-04-26 13:30 | 47.39786 | 8.45862 | 12071 ft | 257 kts | 44° |
| 2026-04-26 13:31 | 47.41051 | 8.47750 | 12861 ft | 260 kts | 44° |
| 2026-04-26 13:31 | 47.42339 | 8.49667 | 13615 ft | 265 kts | 44° |
| 2026-04-26 13:31 | 47.43644 | 8.51607 | 14375 ft | 268 kts | 43° |
| 2026-04-26 13:31 | 47.44953 | 8.53590 | 15065 ft | 271 kts | 46° |
| 2026-04-26 13:32 | 47.46023 | 8.55933 | 15592 ft | 286 kts | 68° |
| 2026-04-26 13:32 | 47.46483 | 8.58873 | 15808 ft | 310 kts | 84° |
| 2026-04-26 13:32 | 47.46571 | 8.62180 | 15986 ft | 333 kts | 90° |
| 2026-04-26 13:32 | 47.46512 | 8.65723 | 16129 ft | 357 kts | 91° |
| 2026-04-26 13:33 | 47.46440 | 8.69496 | 16253 ft | 378 kts | 90° |
| 2026-04-26 13:33 | 47.46425 | 8.73480 | 16404 ft | 397 kts | 89° |
| 2026-04-26 13:33 | 47.46490 | 8.77611 | 16819 ft | 406 kts | 87° |
| 2026-04-26 13:33 | 47.46556 | 8.81807 | 17412 ft | 410 kts | 92° |
| 2026-04-26 13:34 | 47.46165 | 8.86004 | 17974 ft | 415 kts | 101° |
| 2026-04-26 13:34 | 47.45618 | 8.90217 | 18543 ft | 419 kts | 98° |
| 2026-04-26 13:34 | 47.45581 | 8.94520 | 19032 ft | 421 kts | 81° |
| 2026-04-26 13:34 | 47.46020 | 8.97304 | 19357 ft | 422 kts | 69° |
| 2026-04-26 13:35 | 47.47956 | 9.02252 | 19992 ft | 422 kts | 46° |
| 2026-04-26 13:35 | 47.50078 | 9.05258 | 20478 ft | 423 kts | 40° |
| 2026-04-26 13:35 | 47.52263 | 9.08211 | 20966 ft | 427 kts | 40° |
| 2026-04-26 13:35 | 47.54473 | 9.11201 | 21440 ft | 431 kts | 40° |
| 2026-04-26 13:36 | 47.56688 | 9.14214 | 21915 ft | 434 kts | 40° |
| 2026-04-26 13:36 | 47.58920 | 9.17263 | 22377 ft | 438 kts | 40° |
| 2026-04-26 13:36 | 47.61169 | 9.20344 | 22830 ft | 442 kts | 40° |
| 2026-04-26 13:36 | 47.63406 | 9.23412 | 23268 ft | 445 kts | 40° |
| 2026-04-26 13:37 | 47.65685 | 9.26544 | 23685 ft | 449 kts | 41° |
| 2026-04-26 13:37 | 47.67982 | 9.29708 | 24058 ft | 451 kts | 41° |
| 2026-04-26 13:37 | 47.70285 | 9.32887 | 24180 ft | 452 kts | 41° |
| 2026-04-26 13:37 | 47.72594 | 9.36077 | 24217 ft | 452 kts | 41° |
| 2026-04-26 13:38 | 47.74908 | 9.39237 | 24187 ft | 451 kts | 38° |
| 2026-04-26 13:38 | 47.77455 | 9.41950 | 24395 ft | 451 kts | 28° |
| 2026-04-26 13:38 | 47.80258 | 9.44045 | 24793 ft | 450 kts | 19° |
| 2026-04-26 13:38 | 47.83237 | 9.45476 | 25187 ft | 449 kts | 10° |
| 2026-04-26 13:39 | 47.86285 | 9.46190 | 25521 ft | 449 kts | 1° |
| 2026-04-26 13:39 | 47.89406 | 9.46270 | 25850 ft | 450 kts | 356° |
| 2026-04-26 13:39 | 47.92561 | 9.46254 | 26195 ft | 453 kts | 356° |
| 2026-04-26 13:39 | 47.95727 | 9.46241 | 26534 ft | 456 kts | 356° |
| 2026-04-26 13:40 | 47.98907 | 9.46233 | 26861 ft | 458 kts | 356° |
| 2026-04-26 13:40 | 48.02116 | 9.46227 | 27183 ft | 461 kts | 356° |
| 2026-04-26 13:40 | 48.05333 | 9.46222 | 27506 ft | 463 kts | 356° |
| 2026-04-26 13:40 | 48.08563 | 9.46214 | 27821 ft | 465 kts | 356° |
| 2026-04-26 13:41 | 48.11816 | 9.46207 | 28133 ft | 468 kts | 356° |
| 2026-04-26 13:41 | 48.15080 | 9.46201 | 28436 ft | 470 kts | 356° |
| 2026-04-26 13:41 | 48.18319 | 9.46194 | 28734 ft | 472 kts | 356° |
| 2026-04-26 13:41 | 48.21609 | 9.46194 | 29150 ft | 471 kts | 356° |
| 2026-04-26 13:42 | 48.24892 | 9.46198 | 29586 ft | 470 kts | 356° |
| 2026-04-26 13:42 | 48.28164 | 9.46200 | 30061 ft | 469 kts | 356° |
| 2026-04-26 13:42 | 48.31432 | 9.46202 | 30206 ft | 467 kts | 356° |
| 2026-04-26 13:43 | 48.37887 | 9.46214 | 30219 ft | 465 kts | 356° |
| 2026-04-26 13:43 | 48.44360 | 9.46223 | 30223 ft | 464 kts | 356° |
| 2026-04-26 13:44 | 48.50765 | 9.45518 | 30223 ft | 458 kts | 343° |
| 2026-04-26 13:44 | 48.56604 | 9.42127 | 30226 ft | 449 kts | 326° |
| 2026-04-26 13:45 | 48.61756 | 9.36826 | 30216 ft | 446 kts | 321° |
| 2026-04-26 13:45 | 48.66840 | 9.31405 | 30210 ft | 446 kts | 321° |
| 2026-04-26 13:46 | 48.71882 | 9.26019 | 30210 ft | 446 kts | 321° |
| 2026-04-26 13:46 | 48.76959 | 9.20579 | 30210 ft | 446 kts | 321° |
| 2026-04-26 13:47 | 48.82032 | 9.15130 | 30210 ft | 446 kts | 322° |
| 2026-04-26 13:47 | 48.86251 | 9.10608 | 30208 ft | 446 kts | 323° |
| 2026-04-26 13:48 | 48.91895 | 9.06591 | 30214 ft | 452 kts | 339° |
| 2026-04-26 13:48 | 48.97882 | 9.03593 | 30229 ft | 453 kts | 339° |
| 2026-04-26 13:49 | 49.03870 | 9.00586 | 30230 ft | 453 kts | 339° |
| 2026-04-26 13:49 | 49.09856 | 8.97556 | 30230 ft | 453 kts | 339° |
| 2026-04-26 13:50 | 49.15800 | 8.94541 | 30224 ft | 453 kts | 339° |
| 2026-04-26 13:50 | 49.21791 | 8.91506 | 30243 ft | 453 kts | 339° |
| 2026-04-26 13:51 | 49.27780 | 8.88466 | 30250 ft | 452 kts | 339° |
| 2026-04-26 13:51 | 49.33721 | 8.85430 | 30260 ft | 451 kts | 339° |
| 2026-04-26 13:52 | 49.39666 | 8.82379 | 30265 ft | 450 kts | 339° |
| 2026-04-26 13:52 | 49.45675 | 8.79575 | 30261 ft | 450 kts | 342° |
| 2026-04-26 13:53 | 49.51677 | 8.77046 | 30256 ft | 450 kts | 343° |
| 2026-04-26 13:53 | 49.57722 | 8.74498 | 30248 ft | 449 kts | 342° |
| 2026-04-26 13:54 | 49.63735 | 8.71865 | 30237 ft | 449 kts | 342° |
| 2026-04-26 13:54 | 49.69747 | 8.69189 | 30239 ft | 449 kts | 342° |
| 2026-04-26 13:55 | 49.75768 | 8.66517 | 30090 ft | 450 kts | 342° |
| 2026-04-26 13:55 | 49.77764 | 8.65633 | 29905 ft | 451 kts | 342° |
| 2026-04-26 13:55 | 49.84830 | 8.62499 | 29243 ft | 452 kts | 342° |
| 2026-04-26 13:56 | 49.87817 | 8.61171 | 28975 ft | 453 kts | 342° |
| 2026-04-26 13:56 | 49.90852 | 8.59816 | 28699 ft | 454 kts | 342° |
| 2026-04-26 13:56 | 49.93896 | 8.58452 | 28440 ft | 455 kts | 342° |
| 2026-04-26 13:56 | 49.96953 | 8.57083 | 28177 ft | 456 kts | 342° |
| 2026-04-26 13:57 | 50.00007 | 8.55717 | 27913 ft | 457 kts | 342° |
| 2026-04-26 13:57 | 50.03072 | 8.54349 | 27410 ft | 458 kts | 342° |
| 2026-04-26 13:57 | 50.06134 | 8.52967 | 26870 ft | 458 kts | 341° |
| 2026-04-26 13:57 | 50.09168 | 8.51479 | 25964 ft | 457 kts | 340° |
| 2026-04-26 13:58 | 50.12187 | 8.49872 | 24897 ft | 459 kts | 339° |
| 2026-04-26 13:58 | 50.15194 | 8.48190 | 24395 ft | 459 kts | 338° |
| 2026-04-26 13:58 | 50.18195 | 8.46488 | 23928 ft | 458 kts | 338° |
| 2026-04-26 13:58 | 50.21142 | 8.44830 | 23403 ft | 455 kts | 339° |
| 2026-04-26 13:59 | 50.24118 | 8.43184 | 22869 ft | 452 kts | 339° |
| 2026-04-26 13:59 | 50.27083 | 8.41564 | 22326 ft | 449 kts | 339° |
| 2026-04-26 13:59 | 50.29920 | 8.39603 | 21806 ft | 444 kts | 330° |
| 2026-04-26 14:00 | 50.37673 | 8.31986 | 20286 ft | 433 kts | 326° |
| 2026-04-26 14:00 | 50.40201 | 8.29454 | 19799 ft | 429 kts | 326° |
| 2026-04-26 14:00 | 50.41864 | 8.27787 | 19479 ft | 427 kts | 326° |
| 2026-04-26 14:01 | 50.45177 | 8.24476 | 18846 ft | 423 kts | 326° |
| 2026-04-26 14:01 | 50.47652 | 8.22002 | 18351 ft | 420 kts | 326° |
| 2026-04-26 14:01 | 50.50109 | 8.19537 | 17813 ft | 417 kts | 326° |
| 2026-04-26 14:01 | 50.52548 | 8.17082 | 17282 ft | 414 kts | 326° |
| 2026-04-26 14:02 | 50.54968 | 8.14640 | 16765 ft | 412 kts | 326° |
| 2026-04-26 14:02 | 50.57374 | 8.12215 | 16258 ft | 407 kts | 326° |
| 2026-04-26 14:02 | 50.59733 | 8.09841 | 15791 ft | 394 kts | 326° |
| 2026-04-26 14:02 | 50.61951 | 8.07610 | 15305 ft | 371 kts | 326° |
| 2026-04-26 14:03 | 50.64072 | 8.05466 | 14819 ft | 352 kts | 326° |
| 2026-04-26 14:03 | 50.66091 | 8.03416 | 14341 ft | 336 kts | 326° |
| 2026-04-26 14:03 | 50.68016 | 8.01457 | 13844 ft | 323 kts | 326° |
| 2026-04-26 14:03 | 50.69866 | 7.99565 | 13321 ft | 312 kts | 325° |
| 2026-04-26 14:04 | 50.71508 | 7.97135 | 12797 ft | 342 kts | 305° |
| 2026-04-26 14:04 | 50.72485 | 7.93774 | 12275 ft | 332 kts | 283° |
| 2026-04-26 14:04 | 50.72576 | 7.90229 | 11773 ft | 318 kts | 266° |
| 2026-04-26 14:04 | 50.72296 | 7.86834 | 11277 ft | 306 kts | 264° |
| 2026-04-26 14:05 | 50.71993 | 7.83600 | 10787 ft | 296 kts | 264° |
| 2026-04-26 14:05 | 50.71689 | 7.80437 | 10306 ft | 287 kts | 264° |
| 2026-04-26 14:05 | 50.71387 | 7.77353 | 9795 ft | 282 kts | 264° |
| 2026-04-26 14:05 | 50.71089 | 7.74314 | 9270 ft | 279 kts | 263° |
| 2026-04-26 14:06 | 50.70794 | 7.71263 | 8756 ft | 283 kts | 263° |
| 2026-04-26 14:06 | 50.70500 | 7.68171 | 8243 ft | 285 kts | 263° |
| 2026-04-26 14:06 | 50.70210 | 7.65065 | 7740 ft | 287 kts | 263° |
| 2026-04-26 14:06 | 50.69923 | 7.61931 | 7244 ft | 289 kts | 263° |
| 2026-04-26 14:07 | 50.69640 | 7.58788 | 6756 ft | 290 kts | 263° |
| 2026-04-26 14:07 | 50.69360 | 7.55633 | 6242 ft | 290 kts | 263° |
| 2026-04-26 14:07 | 50.69095 | 7.52516 | 5729 ft | 290 kts | 263° |
| 2026-04-26 14:07 | 50.68834 | 7.49356 | 5224 ft | 290 kts | 264° |
| 2026-04-26 14:08 | 50.68589 | 7.46263 | 4699 ft | 277 kts | 265° |
| 2026-04-26 14:08 | 50.68689 | 7.43320 | 4312 ft | 260 kts | 284° |
| 2026-04-26 14:08 | 50.69280 | 7.40751 | 4072 ft | 239 kts | 300° |
| 2026-04-26 14:08 | 50.70185 | 7.38718 | 3992 ft | 215 kts | 313° |
| 2026-04-26 14:09 | 50.71208 | 7.37180 | 3978 ft | 193 kts | 318° |
| 2026-04-26 14:09 | 50.72172 | 7.35796 | 3873 ft | 183 kts | 317° |
| 2026-04-26 14:09 | 50.73105 | 7.34457 | 3645 ft | 179 kts | 319° |
| 2026-04-26 14:09 | 50.74025 | 7.33137 | 3404 ft | 178 kts | 319° |
| 2026-04-26 14:10 | 50.74923 | 7.31846 | 3174 ft | 175 kts | 318° |
| 2026-04-26 14:10 | 50.75820 | 7.30555 | 2940 ft | 174 kts | 319° |
| 2026-04-26 14:10 | 50.76713 | 7.29272 | 2721 ft | 174 kts | 319° |
| 2026-04-26 14:10 | 50.77608 | 7.27984 | 2462 ft | 174 kts | 319° |
| 2026-04-26 14:11 | 50.79364 | 7.25455 | 2012 ft | 165 kts | 318° |
| 2026-04-26 14:11 | 50.80191 | 7.24263 | 1774 ft | 156 kts | 318° |
| 2026-04-26 14:11 | 50.80961 | 7.23152 | 1575 ft | 146 kts | 319° |
| 2026-04-26 14:12 | 50.81700 | 7.22086 | 1380 ft | 142 kts | 318° |
| 2026-04-26 14:12 | 50.82428 | 7.21032 | 1201 ft | 142 kts | 318° |
| 2026-04-26 14:12 | 50.83145 | 7.19997 | 1003 ft | 139 kts | 318° |
| 2026-04-26 14:12 | 50.83862 | 7.18970 | 799 ft | 139 kts | 318° |
| 2026-04-26 14:13 | 50.85290 | 7.16898 | 422 ft | 138 kts | 317° |
| 2026-04-26 14:13 | 50.85995 | 7.15895 | 303 ft | 130 kts | 317° |
| 2026-04-26 14:13 | 50.86560 | 7.15065 | 277 ft | 87 kts | 317° |
| 2026-04-26 14:14 | 50.86922 | 7.14538 | 259 ft | 63 kts | 317° |
| 2026-04-26 14:14 | 50.87190 | 7.14149 | 247 ft | 33 kts | 317° |
| 2026-04-26 14:14 | 50.87295 | 7.13903 | 242 ft | 21 kts | 284° |
| 2026-04-26 14:14 | 50.87327 | 7.13658 | 237 ft | 22 kts | 278° |
| 2026-04-26 14:15 | 50.87364 | 7.13445 | 234 ft | 20 kts | 308° |
| 2026-04-26 14:15 | 50.87468 | 7.13289 | 233 ft | 21 kts | 317° |
| 2026-04-26 14:15 | 50.87581 | 7.13126 | 233 ft | 22 kts | 317° |
| 2026-04-26 14:15 | 50.87698 | 7.12957 | 233 ft | 24 kts | 317° |
| 2026-04-26 14:16 | 50.87766 | 7.12859 | 232 ft | 12 kts | 317° |
| 2026-04-26 14:16 | 50.87787 | 7.12756 | 234 ft | 12 kts | 256° |
| 2026-04-26 14:16 | 50.87813 | 7.12635 | 232 ft | 14 kts | 323° |
| 2026-04-26 14:16 | 50.87913 | 7.12624 | 232 ft | 16 kts | 13° |
| 2026-04-26 14:17 | 50.88003 | 7.12566 | 232 ft | 11 kts | 306° |
| 2026-04-26 14:17 | 50.88047 | 7.12447 | 233 ft | 14 kts | 300° |
| 2026-04-26 14:17 | 50.88093 | 7.12336 | 232 ft | 9 kts | 306° |
| 2026-04-26 14:17 | 50.88119 | 7.12269 | 232 ft | 6 kts | 280° |
| 2026-04-26 14:18 | 50.88094 | 7.12232 | 233 ft | 5 kts | 215° |
| 2026-04-26 14:18 | 50.88073 | 7.12208 | 234 ft | 3 kts | 216° |
| 2026-04-26 14:18 | 50.88061 | 7.12195 | 232 ft | 1 kts | 216° |
| 2026-04-26 14:18 | 50.88058 | 7.12191 | 232 ft | 1 kts | 216° |
| 2026-04-26 14:19 | 50.88057 | 7.12190 | 232 ft | 0 kts | 216° |